createdAt,value
2023-01-19T00:01:16.314Z,30.60
2023-01-19T00:06:25.962Z,29.60
2023-01-19T00:11:33.642Z,31.90
2023-01-19T00:16:41.379Z,34.20
2023-01-19T00:21:48.830Z,30.30
2023-01-19T00:26:56.195Z,32.20
2023-01-19T00:32:04.772Z,34.40
2023-01-19T00:37:13.750Z,32.10
2023-01-19T00:42:44.542Z,31.70
2023-01-19T00:47:57.432Z,30.70
2023-01-19T00:53:05.283Z,30.40
2023-01-19T00:58:12.781Z,28.10
2023-01-19T01:03:20.314Z,30.30
2023-01-19T01:08:28.394Z,30.60
2023-01-19T01:13:35.780Z,30.30
2023-01-19T01:18:43.615Z,29.20
2023-01-19T01:23:51.148Z,32.20
2023-01-19T01:29:01.107Z,32.70
2023-01-19T01:34:08.944Z,31.20
2023-01-19T01:44:51.748Z,30.00
2023-01-19T01:50:04.898Z,31.20
2023-01-19T01:55:14.624Z,31.10
2023-01-19T02:00:22.885Z,30.90
2023-01-19T02:05:34.339Z,31.50
2023-01-19T02:11:00.107Z,32.80
2023-01-19T02:16:10.731Z,30.80
2023-01-19T02:21:24.236Z,31.20
2023-01-19T02:26:35.882Z,30.30
2023-01-19T02:31:45.582Z,32.30
2023-01-19T02:36:57.820Z,31.80
2023-01-19T02:42:09.772Z,31.30
2023-01-19T02:47:20.023Z,33.60
2023-01-19T02:52:29.385Z,33.60
2023-01-19T02:58:02.430Z,36.70
2023-01-19T03:03:24.745Z,34.80
2023-01-19T03:08:45.274Z,34.30
2023-01-19T03:13:56.151Z,32.00
2023-01-19T03:19:10.191Z,33.50
2023-01-19T03:24:20.347Z,31.90
2023-01-19T03:29:34.967Z,32.50
2023-01-19T03:34:44.984Z,33.10
2023-01-19T03:39:52.936Z,34.20
2023-01-19T03:45:04.910Z,34.60
2023-01-19T03:50:25.319Z,31.90
2023-01-19T03:55:33.119Z,35.80
2023-01-19T04:00:43.409Z,33.30
2023-01-19T04:05:51.670Z,35.80
2023-01-19T04:11:00.488Z,35.60
2023-01-19T04:16:08.986Z,36.00
2023-01-19T04:21:16.339Z,35.40
2023-01-19T04:26:24.995Z,36.10
2023-01-19T04:31:33.082Z,34.00
2023-01-19T04:36:41.007Z,33.70
2023-01-19T04:41:48.572Z,33.10
2023-01-19T04:46:56.177Z,35.70
2023-01-19T04:52:03.871Z,34.10
2023-01-19T04:57:11.471Z,34.90
2023-01-19T05:02:19.051Z,36.40
2023-01-19T05:07:26.472Z,34.00
2023-01-19T05:12:33.819Z,34.10
2023-01-19T05:17:41.255Z,34.00
2023-01-19T05:22:53.712Z,33.80
2023-01-19T05:28:00.923Z,37.60
2023-01-19T05:33:08.089Z,34.30
2023-01-19T05:38:17.040Z,30.90
2023-01-19T05:43:26.507Z,36.20
2023-01-19T05:48:33.834Z,34.10
2023-01-19T05:53:41.159Z,34.00
2023-01-19T05:58:48.564Z,32.30
2023-01-19T06:03:55.893Z,32.20
2023-01-19T06:09:03.108Z,32.10
2023-01-19T06:14:10.661Z,34.10
2023-01-19T06:19:17.817Z,35.00
2023-01-19T06:24:25.429Z,33.50
2023-01-19T06:29:33.030Z,35.50
2023-01-19T06:34:43.988Z,32.80
2023-01-19T06:39:51.449Z,29.70
2023-01-19T06:44:59.910Z,32.40
2023-01-19T06:50:07.930Z,31.30
2023-01-19T06:55:16.372Z,32.90
2023-01-19T07:00:32.805Z,34.00
2023-01-19T07:05:50.619Z,33.30
2023-01-19T07:11:23.193Z,37.00
2023-01-19T07:16:37.181Z,33.20
2023-01-19T07:21:53.851Z,34.00
2023-01-19T07:27:01.072Z,31.40
2023-01-19T07:32:19.509Z,33.40
2023-01-19T07:37:28.307Z,30.10
2023-01-19T07:42:35.642Z,39.10
2023-01-19T07:47:43.908Z,37.80
2023-01-19T07:52:53.717Z,35.90
2023-01-19T07:58:00.923Z,33.80
2023-01-19T08:03:09.415Z,31.90
2023-01-19T08:08:16.787Z,31.80
2023-01-19T08:13:24.083Z,31.40
2023-01-19T08:18:31.293Z,31.60
2023-01-19T08:23:38.481Z,31.70
2023-01-19T08:28:45.623Z,34.20
2023-01-19T08:33:52.749Z,32.50
2023-01-19T08:38:59.893Z,30.70
2023-01-19T08:44:07.357Z,31.10
2023-01-19T08:49:14.667Z,31.10
2023-01-19T08:54:23.289Z,31.10
2023-01-19T08:59:30.418Z,31.30
2023-01-19T09:04:38.186Z,32.00
2023-01-19T09:09:45.375Z,30.60
2023-01-19T09:14:52.508Z,32.00
2023-01-19T09:19:59.672Z,31.90
2023-01-19T09:25:11.894Z,32.60
2023-01-19T09:30:20.240Z,33.50
2023-01-19T09:35:27.536Z,33.20
2023-01-19T09:40:35.211Z,40.30
2023-01-19T09:45:50.333Z,33.80
2023-01-19T09:51:00.696Z,34.20
2023-01-19T09:56:09.647Z,37.00
2023-01-19T10:01:35.276Z,37.60
2023-01-19T10:06:43.485Z,42.20
2023-01-19T10:11:57.941Z,42.00
2023-01-19T10:17:18.273Z,47.00
2023-01-19T10:22:28.084Z,43.30
2023-01-19T10:27:37.826Z,45.00
2023-01-19T10:32:45.746Z,43.50
2023-01-19T10:37:54.931Z,42.80
2023-01-19T10:43:02.587Z,42.90
2023-01-19T10:48:13.652Z,42.80
2023-01-19T10:53:25.936Z,45.00
2023-01-19T10:58:36.347Z,42.80
2023-01-19T11:03:43.748Z,42.80
2023-01-19T11:08:52.394Z,40.70
2023-01-19T11:14:14.229Z,40.80
2023-01-19T11:19:30.241Z,43.90
2023-01-19T11:24:40.311Z,47.00
2023-01-19T11:29:55.433Z,43.70
2023-01-19T11:35:02.768Z,49.50
2023-01-19T11:40:14.336Z,45.30
2023-01-19T11:45:22.833Z,46.20
2023-01-19T11:50:34.449Z,44.70
2023-01-19T11:55:48.994Z,41.50
2023-01-19T12:01:00.522Z,41.80
2023-01-19T12:06:12.192Z,45.80
2023-01-19T12:11:24.163Z,44.40
2023-01-19T12:16:34.106Z,42.50
2023-01-19T12:21:41.468Z,44.00
2023-01-19T12:26:54.453Z,43.40
2023-01-19T12:32:20.670Z,47.20
2023-01-19T12:37:42.037Z,49.10
2023-01-19T12:42:56.349Z,45.80
2023-01-19T12:48:05.367Z,46.00
2023-01-19T12:53:22.671Z,46.20
2023-01-19T12:58:32.034Z,47.50
2023-01-19T13:09:04.450Z,48.40
2023-01-19T13:14:34.972Z,49.90
2023-01-19T13:20:12.705Z,50.00
2023-01-19T13:25:31.468Z,50.50
2023-01-19T13:30:46.218Z,47.60
2023-01-19T13:35:57.025Z,51.00
2023-01-19T13:41:07.739Z,50.50
2023-01-19T13:46:17.508Z,53.20
2023-01-19T13:51:24.882Z,62.50
2023-01-19T13:56:32.981Z,66.10
2023-01-19T14:06:49.815Z,60.90
2023-01-19T14:12:16.378Z,63.00
2023-01-19T14:17:29.103Z,62.10
2023-01-19T14:22:45.520Z,65.80
2023-01-19T14:27:53.079Z,66.80
2023-01-19T14:33:00.219Z,67.40
2023-01-19T14:38:16.202Z,72.00
2023-01-19T14:43:27.582Z,70.90
2023-01-19T14:48:34.772Z,68.80
2023-01-19T14:53:48.043Z,68.00
2023-01-19T14:58:56.159Z,66.00
2023-01-19T15:09:10.314Z,67.40
2023-01-19T15:14:18.891Z,68.10
2023-01-19T15:19:26.007Z,68.00
2023-01-19T15:24:33.211Z,66.60
2023-01-19T15:29:41.529Z,65.30
2023-01-19T15:34:48.718Z,59.10
2023-01-19T15:39:56.064Z,61.90
2023-01-19T15:45:19.488Z,61.40
2023-01-19T15:50:27.690Z,58.90
2023-01-19T15:55:35.028Z,65.10
2023-01-19T16:00:42.552Z,65.00
2023-01-19T16:05:50.020Z,61.70
2023-01-19T16:10:57.182Z,57.40
2023-01-19T16:16:08.826Z,58.90
2023-01-19T16:21:16.051Z,55.80
2023-01-19T16:26:35.068Z,58.60
2023-01-19T16:31:45.583Z,55.20
2023-01-19T16:36:52.808Z,56.20
2023-01-19T16:42:00.008Z,51.00
2023-01-19T16:47:07.473Z,56.50
2023-01-19T16:52:14.766Z,55.20
2023-01-19T16:57:21.901Z,58.70
2023-01-19T17:02:29.110Z,57.20
2023-01-19T17:07:36.555Z,55.90
2023-01-19T17:12:43.794Z,57.60
2023-01-19T17:17:50.944Z,57.20
2023-01-19T17:22:58.059Z,55.90
2023-01-19T17:28:05.352Z,55.10
2023-01-19T17:33:12.830Z,57.00
2023-01-19T17:38:20.061Z,55.70
2023-01-19T17:43:27.294Z,56.40
2023-01-19T17:48:34.476Z,50.50
2023-01-19T17:53:43.079Z,55.80
2023-01-19T17:58:50.937Z,53.50
2023-01-19T18:03:58.996Z,56.70
2023-01-19T18:09:07.641Z,56.90
2023-01-19T18:14:14.788Z,55.30
2023-01-19T18:19:23.083Z,56.80
2023-01-19T18:24:30.335Z,56.80
2023-01-19T18:29:37.489Z,59.40
2023-01-19T18:34:46.262Z,60.40
2023-01-19T18:39:59.930Z,58.70
2023-01-19T18:45:11.185Z,58.40
2023-01-19T18:50:18.870Z,52.90
2023-01-19T18:55:26.080Z,49.30
2023-01-19T19:00:33.256Z,44.90
2023-01-19T19:05:40.665Z,45.70
2023-01-19T19:10:48.134Z,42.50
2023-01-19T19:15:57.099Z,40.50
2023-01-19T19:21:06.749Z,39.60
2023-01-19T19:26:14.852Z,43.00
2023-01-19T19:36:29.755Z,38.90
2023-01-19T19:46:45.019Z,38.40
2023-01-19T19:51:52.148Z,37.40
2023-01-19T19:56:59.311Z,35.50
2023-01-19T20:02:06.577Z,37.10
2023-01-19T20:07:13.787Z,33.40
2023-01-19T20:12:20.901Z,31.60
2023-01-19T20:17:28.020Z,34.30
2023-01-19T20:22:35.593Z,33.50
2023-01-19T20:27:44.954Z,30.10
2023-01-19T20:32:52.533Z,30.70
2023-01-19T20:38:00.130Z,31.80
2023-01-19T20:43:08.240Z,33.40
2023-01-19T20:48:15.502Z,29.00
2023-01-19T20:53:22.684Z,26.30
2023-01-19T20:58:31.668Z,27.80
2023-01-19T21:03:38.871Z,28.40
2023-01-19T21:08:46.608Z,32.90
2023-01-19T21:13:56.327Z,30.80
2023-01-19T21:19:04.021Z,30.70
2023-01-19T21:24:12.868Z,31.70
2023-01-19T21:29:20.157Z,33.90
2023-01-19T21:34:27.318Z,29.30
2023-01-19T21:39:34.492Z,30.00
2023-01-19T21:44:41.780Z,32.10
2023-01-19T21:49:49.077Z,32.80
2023-01-19T21:54:56.210Z,32.20
2023-01-19T22:00:03.361Z,31.90
2023-01-19T22:05:15.575Z,32.50
2023-01-19T22:10:22.883Z,35.00
2023-01-19T22:15:31.554Z,35.90
2023-01-19T22:20:38.766Z,34.40
2023-01-19T22:25:47.450Z,39.40
2023-01-19T22:30:54.821Z,35.90
2023-01-19T22:36:15.053Z,36.50
2023-01-19T22:41:24.093Z,36.10
2023-01-19T22:46:33.976Z,35.50
2023-01-19T22:51:41.180Z,37.90
2023-01-19T22:56:48.261Z,35.00
2023-01-19T23:01:55.607Z,37.70
2023-01-19T23:07:02.847Z,33.60
2023-01-19T23:12:10.181Z,34.40
2023-01-19T23:17:17.269Z,34.60
2023-01-19T23:22:24.438Z,36.10
2023-01-19T23:27:31.529Z,36.40
2023-01-19T23:32:38.765Z,34.80
2023-01-19T23:37:46.057Z,34.60
2023-01-19T23:42:53.243Z,37.00
2023-01-19T23:48:00.361Z,36.20
2023-01-19T23:53:07.449Z,38.60
2023-01-19T23:58:14.593Z,39.50
